Time;durP1;ratioP1;P1;durP2;ratioP2;P2;SDS_P1;SDS_P2;PMS_P1;PMS_P2;Temp;Humidity;BMP_temperature;BMP_pressure;BME280_temperature;BME280_humidity;BME280_pressure;Samples;Min_cycle;Max_cycle;Signal;HPM_P1;HPM_P2
2023/07/13 00:02:07;;;;;;;0.00;0.00;;;15.20;99.90;;;;;;5011484;28;20041;-68
2023/07/13 00:04:33;;;;;;;0.10;0.00;;;15.20;99.90;;;;;;5014377;28;20047;-68
2023/07/13 00:06:58;;;;;;;0.00;0.00;;;15.20;99.90;;;;;;5014932;28;20037;-69
2023/07/13 00:09:24;;;;;;;0.00;0.00;;;15.30;99.90;;;;;;5015277;28;20042;-68
2023/07/13 00:11:53;;;;;;;2.72;0.17;;;15.30;99.90;;;;;;5013270;28;20037;-69
2023/07/13 00:14:19;;;;;;;0.00;0.00;;;15.20;99.90;;;;;;5012989;28;20077;-69
2023/07/13 00:16:45;;;;;;;0.00;0.00;;;15.20;99.90;;;;;;5008949;28;20042;-68
2023/07/13 00:19:12;;;;;;;0.20;0.05;;;15.30;99.90;;;;;;5013418;28;20060;-68
2023/07/13 00:21:39;;;;;;;0.20;0.05;;;15.30;99.90;;;;;;5010451;28;20128;-68
2023/07/13 00:24:06;;;;;;;0.00;0.00;;;15.30;99.90;;;;;;5014036;28;20060;-68
2023/07/13 00:26:33;;;;;;;0.10;0.00;;;15.40;99.90;;;;;;5007191;28;20049;-68
2023/07/13 00:28:59;;;;;;;0.10;0.08;;;15.40;99.90;;;;;;5005812;28;20144;-67
2023/07/13 00:31:25;;;;;;;0.05;0.00;;;15.40;99.90;;;;;;5011747;28;20137;-68
2023/07/13 00:33:51;;;;;;;0.22;0.00;;;15.40;99.90;;;;;;5013829;28;20038;-67
2023/07/13 00:36:17;;;;;;;0.20;0.10;;;15.50;99.90;;;;;;5005641;28;20076;-67
2023/07/13 00:38:43;;;;;;;4.65;0.38;;;15.50;99.90;;;;;;5013599;28;20042;-68
2023/07/13 00:41:09;;;;;;;0.00;0.00;;;15.50;99.90;;;;;;5014869;28;20141;-68
2023/07/13 00:43:35;;;;;;;0.38;0.20;;;15.50;99.90;;;;;;5009609;28;20038;-68
2023/07/13 00:46:01;;;;;;;0.00;0.00;;;15.50;99.90;;;;;;5011764;28;20362;-69
2023/07/13 00:48:32;;;;;;;0.00;0.00;;;15.50;99.90;;;;;;5014290;28;20489;-69
2023/07/13 00:51:00;;;;;;;0.05;0.00;;;15.50;99.90;;;;;;5012213;28;20045;-68
2023/07/13 00:53:29;;;;;;;0.00;0.00;;;15.50;99.90;;;;;;5010928;28;20082;-68
2023/07/13 00:55:56;;;;;;;0.05;0.00;;;15.50;99.90;;;;;;5005283;28;20080;-68
2023/07/13 00:58:24;;;;;;;0.43;0.00;;;15.50;99.90;;;;;;5008914;28;20479;-68
2023/07/13 01:00:51;;;;;;;2.92;0.32;;;15.50;99.90;;;;;;5013361;28;20065;-68
2023/07/13 01:03:18;;;;;;;0.03;0.00;;;15.50;99.90;;;;;;5002562;28;20089;-68
2023/07/13 01:05:48;;;;;;;0.43;0.10;;;15.50;99.90;;;;;;5005008;28;20260;-68
2023/07/13 01:08:14;;;;;;;0.10;0.00;;;15.40;99.90;;;;;;5009152;28;20097;-68
2023/07/13 01:10:39;;;;;;;0.20;0.10;;;15.40;99.90;;;;;;5015540;28;20074;-68
2023/07/13 01:13:07;;;;;;;0.10;0.10;;;15.40;99.90;;;;;;5010536;28;20442;-68
2023/07/13 01:15:41;;;;;;;0.52;0.00;;;15.30;99.90;;;;;;5014026;28;20053;-68
2023/07/13 01:18:13;;;;;;;0.50;0.10;;;15.30;99.90;;;;;;5009414;28;20045;-69
2023/07/13 01:20:40;;;;;;;0.15;0.03;;;15.30;99.90;;;;;;5010622;28;20293;-68
2023/07/13 01:23:08;;;;;;;0.10;0.10;;;15.30;99.90;;;;;;5006824;28;20046;-68
2023/07/13 01:25:35;;;;;;;0.15;0.03;;;15.20;99.90;;;;;;5002983;28;20450;-68
2023/07/13 01:28:02;;;;;;;0.03;0.00;;;15.20;99.90;;;;;;5008856;28;20439;-68
2023/07/13 01:30:28;;;;;;;0.00;0.00;;;15.20;99.90;;;;;;5007171;28;20041;-68
2023/07/13 01:32:54;;;;;;;1.65;0.25;;;15.20;99.90;;;;;;5005622;28;20052;-69
2023/07/13 01:35:20;;;;;;;0.28;0.20;;;15.30;99.90;;;;;;5010227;28;20036;-69
2023/07/13 01:37:46;;;;;;;0.22;0.13;;;15.30;99.90;;;;;;5009794;28;20078;-69
2023/07/13 01:40:12;;;;;;;0.00;0.00;;;15.30;99.90;;;;;;5013643;28;20041;-68
2023/07/13 01:42:38;;;;;;;0.00;0.00;;;15.20;99.90;;;;;;5013948;28;20450;-68
2023/07/13 01:45:04;;;;;;;0.00;0.00;;;15.20;99.90;;;;;;5006837;28;20456;-68
2023/07/13 01:47:30;;;;;;;0.98;0.20;;;15.20;99.90;;;;;;5009357;28;20037;-68
2023/07/13 01:49:57;;;;;;;0.80;0.10;;;15.20;99.90;;;;;;5010548;28;20049;-69
2023/07/13 01:52:23;;;;;;;0.20;0.05;;;15.20;99.90;;;;;;5011217;28;20507;-69
2023/07/13 01:54:48;;;;;;;0.00;0.00;;;15.20;99.90;;;;;;5010241;28;20046;-68
2023/07/13 01:57:14;;;;;;;0.03;0.03;;;15.10;99.90;;;;;;5012833;28;20042;-69
2023/07/13 01:59:40;;;;;;;0.10;0.00;;;15.10;99.90;;;;;;5011028;28;20136;-69
2023/07/13 02:02:06;;;;;;;0.10;0.00;;;15.10;99.90;;;;;;5008228;28;20056;-68
2023/07/13 02:04:32;;;;;;;0.00;0.00;;;15.10;99.90;;;;;;5007892;28;20542;-68
2023/07/13 02:06:57;;;;;;;0.10;0.00;;;15.00;99.90;;;;;;5008681;28;20046;-68
2023/07/13 02:09:23;;;;;;;0.30;0.30;;;15.00;99.90;;;;;;5008400;28;20042;-69
2023/07/13 02:11:49;;;;;;;0.00;0.00;;;15.00;99.90;;;;;;5006627;28;20457;-68
2023/07/13 02:14:15;;;;;;;0.00;0.00;;;15.00;99.90;;;;;;5004977;28;20040;-68
2023/07/13 02:16:41;;;;;;;0.00;0.00;;;14.90;99.90;;;;;;5007954;28;20067;-68
2023/07/13 02:19:07;;;;;;;0.10;0.00;;;14.90;99.90;;;;;;5012845;28;20034;-68
2023/07/13 02:21:33;;;;;;;0.00;0.00;;;14.80;99.90;;;;;;5002083;28;20052;-68
2023/07/13 02:23:59;;;;;;;0.00;0.00;;;14.80;99.90;;;;;;5008392;28;20437;-68
2023/07/13 02:26:25;;;;;;;0.00;0.00;;;14.80;99.90;;;;;;5009955;28;20437;-68
2023/07/13 02:28:52;;;;;;;0.00;0.00;;;14.80;99.90;;;;;;5005054;28;20042;-69
2023/07/13 02:31:18;;;;;;;0.15;0.00;;;14.70;99.90;;;;;;5006653;28;20043;-68
2023/07/13 02:33:44;;;;;;;0.00;0.00;;;14.70;99.90;;;;;;5005233;28;20046;-68
2023/07/13 02:36:11;;;;;;;0.15;0.00;;;14.70;99.90;;;;;;5012413;28;20088;-67
2023/07/13 02:38:37;;;;;;;0.00;0.00;;;14.70;99.90;;;;;;5007986;28;20095;-68
2023/07/13 02:41:05;;;;;;;0.20;0.10;;;14.60;99.90;;;;;;5005958;28;20033;-68
2023/07/13 02:43:31;;;;;;;0.08;0.00;;;14.60;99.90;;;;;;5006515;28;20046;-68
2023/07/13 02:46:00;;;;;;;0.00;0.00;;;14.60;99.90;;;;;;5012820;28;20049;-68
2023/07/13 02:48:26;;;;;;;0.00;0.00;;;14.60;99.90;;;;;;5005166;28;20462;-68
2023/07/13 02:50:51;;;;;;;0.13;0.05;;;14.60;99.90;;;;;;5004512;28;20041;-68
2023/07/13 02:53:17;;;;;;;0.00;0.00;;;14.50;99.90;;;;;;5007762;28;20513;-68
2023/07/13 02:55:47;;;;;;;0.47;0.15;;;14.50;99.90;;;;;;5003304;28;20050;-68
2023/07/13 02:58:16;;;;;;;0.10;0.00;;;14.50;99.90;;;;;;5008498;28;20034;-68
2023/07/13 03:00:47;;;;;;;0.00;0.00;;;14.50;99.90;;;;;;5001488;28;20102;-69
2023/07/13 03:03:13;;;;;;;0.00;0.00;;;14.50;99.90;;;;;;5006666;28;20470;-68
2023/07/13 03:05:41;;;;;;;0.20;0.08;;;14.50;99.90;;;;;;5007660;28;20524;-68
2023/07/13 03:08:08;;;;;;;0.00;0.00;;;14.40;99.90;;;;;;4999921;28;20035;-68
2023/07/13 03:10:34;;;;;;;0.00;0.00;;;14.40;99.90;;;;;;4999867;28;20097;-68
2023/07/13 03:12:59;;;;;;;0.00;0.00;;;14.40;99.90;;;;;;5009182;28;20445;-68
2023/07/13 03:15:25;;;;;;;0.00;0.00;;;14.40;99.90;;;;;;5009080;28;20066;-68
2023/07/13 03:17:51;;;;;;;0.10;0.10;;;14.40;99.90;;;;;;5009922;28;20377;-69
2023/07/13 03:20:16;;;;;;;0.10;0.00;;;14.40;99.90;;;;;;5005640;28;20040;-68
2023/07/13 03:22:43;;;;;;;0.00;0.00;;;14.40;99.90;;;;;;5006385;28;20556;-68
2023/07/13 03:25:09;;;;;;;0.00;0.00;;;14.40;99.90;;;;;;5006151;28;20451;-68
2023/07/13 03:27:34;;;;;;;1.65;0.00;;;14.40;99.90;;;;;;5000504;28;20061;-68
2023/07/13 03:30:00;;;;;;;0.00;0.00;;;14.40;99.90;;;;;;5000043;28;20052;-68
2023/07/13 03:32:26;;;;;;;0.00;0.00;;;14.40;99.90;;;;;;5008762;28;20042;-68
2023/07/13 03:34:52;;;;;;;1.63;0.10;;;14.40;99.90;;;;;;5002503;28;20494;-68
2023/07/13 03:37:18;;;;;;;0.13;0.10;;;14.40;99.90;;;;;;5008389;28;20054;-68
2023/07/13 03:39:44;;;;;;;0.00;0.00;;;14.40;99.90;;;;;;5000926;28;20039;-68
2023/07/13 03:42:09;;;;;;;0.00;0.00;;;14.40;99.90;;;;;;5007432;28;20103;-68
2023/07/13 03:44:35;;;;;;;0.00;0.00;;;14.50;99.90;;;;;;5002477;28;20042;-66
2023/07/13 03:47:01;;;;;;;0.10;0.00;;;14.60;99.90;;;;;;5003338;28;20046;-65
2023/07/13 03:49:26;;;;;;;0.30;0.22;;;14.60;99.90;;;;;;5003094;28;20046;-65
2023/07/13 03:51:52;;;;;;;0.00;0.00;;;14.60;99.90;;;;;;5006663;28;20227;-65
2023/07/13 03:54:18;;;;;;;0.10;0.00;;;14.70;99.90;;;;;;5003685;28;20042;-65
2023/07/13 03:56:44;;;;;;;0.13;0.08;;;14.70;99.90;;;;;;4997797;28;20182;-66
2023/07/13 03:59:09;;;;;;;0.00;0.00;;;14.70;99.90;;;;;;5001189;28;20038;-66
2023/07/13 04:01:35;;;;;;;0.08;0.08;;;14.70;99.90;;;;;;5001008;28;20037;-66
2023/07/13 04:04:01;;;;;;;0.40;0.10;;;14.70;99.90;;;;;;5000220;28;20510;-66
2023/07/13 04:06:29;;;;;;;0.00;0.00;;;14.70;99.90;;;;;;4998055;28;20037;-66
2023/07/13 04:08:57;;;;;;;0.10;0.00;;;14.80;99.90;;;;;;5002782;28;20128;-66
2023/07/13 04:11:26;;;;;;;0.10;0.00;;;14.70;99.90;;;;;;5001435;28;20092;-66
2023/07/13 04:13:52;;;;;;;0.22;0.03;;;14.70;99.90;;;;;;5001310;28;20132;-66
2023/07/13 04:16:19;;;;;;;0.10;0.00;;;14.70;99.90;;;;;;4997546;28;20077;-66
2023/07/13 04:18:46;;;;;;;0.35;0.15;;;14.70;99.90;;;;;;5006938;28;20042;-66
2023/07/13 04:21:12;;;;;;;0.43;0.10;;;14.70;99.90;;;;;;5001630;28;20418;-66
2023/07/13 04:23:38;;;;;;;1.45;0.08;;;14.70;99.90;;;;;;5000157;28;20521;-66
2023/07/13 04:26:05;;;;;;;0.80;0.05;;;14.70;99.90;;;;;;4992779;28;20052;-66
2023/07/13 04:28:31;;;;;;;0.98;0.20;;;14.80;99.90;;;;;;5002404;28;20471;-66
2023/07/13 04:30:56;;;;;;;0.28;0.10;;;14.80;99.90;;;;;;4999755;28;20048;-66
2023/07/13 04:33:23;;;;;;;0.10;0.10;;;14.80;99.90;;;;;;4997723;28;20070;-66
2023/07/13 04:35:54;;;;;;;0.10;0.00;;;14.80;99.90;;;;;;4998468;28;20152;-66
2023/07/13 04:38:20;;;;;;;0.13;0.00;;;14.80;99.90;;;;;;5005011;28;20121;-66
2023/07/13 04:40:47;;;;;;;0.10;0.05;;;14.90;99.90;;;;;;5001853;28;20050;-66
2023/07/13 04:43:12;;;;;;;0.10;0.10;;;14.90;99.90;;;;;;4999479;28;20054;-66
2023/07/13 04:45:38;;;;;;;0.00;0.00;;;14.90;99.90;;;;;;5005310;28;20049;-66
2023/07/13 04:48:05;;;;;;;0.35;0.15;;;15.10;99.90;;;;;;5006056;28;20518;-66
2023/07/13 04:50:30;;;;;;;0.00;0.00;;;15.10;99.90;;;;;;5008002;28;20050;-66
2023/07/13 04:52:56;;;;;;;0.00;0.00;;;15.20;99.90;;;;;;4996729;28;20042;-66
2023/07/13 04:55:22;;;;;;;0.15;0.00;;;15.20;99.90;;;;;;4998329;28;20034;-66
2023/07/13 04:57:47;;;;;;;0.00;0.00;;;15.20;99.90;;;;;;5004176;28;20034;-66
2023/07/13 05:00:15;;;;;;;0.00;0.00;;;15.30;99.90;;;;;;5006503;28;20471;-66
2023/07/13 05:02:44;;;;;;;0.50;0.10;;;15.40;99.90;;;;;;5000160;28;20062;-66
2023/07/13 05:05:10;;;;;;;0.20;0.10;;;15.60;99.90;;;;;;5005228;28;20043;-66
2023/07/13 05:07:36;;;;;;;0.10;0.05;;;16.00;99.90;;;;;;5006522;28;20049;-66
2023/07/13 05:10:03;;;;;;;0.25;0.10;;;16.40;99.90;;;;;;5004126;28;20073;-66
2023/07/13 05:12:30;;;;;;;0.00;0.00;;;16.60;99.90;;;;;;4996628;28;20089;-66
2023/07/13 05:14:56;;;;;;;1.00;0.22;;;16.70;99.90;;;;;;5000513;28;20038;-66
2023/07/13 05:17:22;;;;;;;1.35;0.38;;;17.00;99.90;;;;;;5008378;28;20140;-66
2023/07/13 05:19:47;;;;;;;0.00;0.00;;;17.30;99.90;;;;;;5002540;28;20454;-66
2023/07/13 05:22:13;;;;;;;0.20;0.13;;;17.50;99.90;;;;;;4997501;28;20038;-66
2023/07/13 05:24:39;;;;;;;0.20;0.00;;;17.50;99.90;;;;;;5004676;28;20387;-66
2023/07/13 05:27:05;;;;;;;0.10;0.10;;;17.40;99.90;;;;;;5005135;28;20046;-66
2023/07/13 05:29:31;;;;;;;0.00;0.00;;;17.40;99.90;;;;;;4994362;28;20425;-66
2023/07/13 05:31:57;;;;;;;0.28;0.10;;;17.30;99.90;;;;;;5003925;28;20129;-66
2023/07/13 05:34:22;;;;;;;0.00;0.00;;;17.20;99.90;;;;;;4999493;28;20046;-66
2023/07/13 05:36:49;;;;;;;0.10;0.10;;;17.20;99.90;;;;;;5002398;28;20041;-66
2023/07/13 05:39:15;;;;;;;0.38;0.20;;;17.20;99.90;;;;;;5006111;28;20082;-66
2023/07/13 05:41:40;;;;;;;1.02;0.30;;;17.10;99.90;;;;;;5000107;28;20524;-66
2023/07/13 05:44:06;;;;;;;0.32;0.20;;;17.20;99.90;;;;;;5002853;28;20049;-66
2023/07/13 05:46:32;;;;;;;0.45;0.25;;;17.20;99.90;;;;;;5010012;28;20056;-66
2023/07/13 05:48:58;;;;;;;0.38;0.10;;;17.20;99.90;;;;;;5008273;28;20078;-66
2023/07/13 05:51:23;;;;;;;3.00;0.55;;;17.20;99.90;;;;;;5006991;28;20079;-66
2023/07/13 05:53:52;;;;;;;0.00;0.00;;;17.30;99.90;;;;;;5007139;28;20750;-66
2023/07/13 05:56:17;;;;;;;0.00;0.00;;;17.30;99.90;;;;;;5008421;28;20183;-66
2023/07/13 05:58:43;;;;;;;0.10;0.00;;;17.40;99.90;;;;;;5008520;28;20054;-67
2023/07/13 06:01:11;;;;;;;0.00;0.00;;;17.50;99.90;;;;;;5006436;28;20037;-67
2023/07/13 06:03:40;;;;;;;0.20;0.10;;;17.50;99.90;;;;;;5009931;28;20061;-67
2023/07/13 06:06:08;;;;;;;0.00;0.00;;;17.60;99.90;;;;;;5009436;28;20393;-67
2023/07/13 06:08:33;;;;;;;0.10;0.00;;;17.70;99.90;;;;;;5006922;28;20042;-65
2023/07/13 06:11:18;;;;;;;0.10;0.00;;;17.80;99.90;;;;;;5005256;28;20050;-67
2023/07/13 06:13:44;;;;;;;0.25;0.10;;;17.90;99.90;;;;;;5004331;28;20043;-67
2023/07/13 06:16:10;;;;;;;0.20;0.20;;;18.00;99.90;;;;;;5005163;28;20038;-67
2023/07/13 06:18:37;;;;;;;0.17;0.10;;;18.00;99.90;;;;;;5007199;28;20048;-67
2023/07/13 06:21:11;;;;;;;0.08;0.00;;;18.20;99.90;;;;;;4996901;28;20042;-67
2023/07/13 06:23:37;;;;;;;0.25;0.15;;;18.30;99.90;;;;;;5005364;28;20124;-67
2023/07/13 06:26:04;;;;;;;0.88;0.10;;;18.40;99.90;;;;;;5000631;28;20081;-67
2023/07/13 06:28:31;;;;;;;0.50;0.20;;;18.40;99.90;;;;;;5010025;28;20430;-67
2023/07/13 06:30:58;;;;;;;0.20;0.10;;;18.50;99.90;;;;;;4997943;28;20046;-67
2023/07/13 06:33:24;;;;;;;0.28;0.20;;;18.60;99.90;;;;;;5000073;28;20117;-67
2023/07/13 06:35:49;;;;;;;0.10;0.00;;;18.70;99.90;;;;;;5000743;28;20050;-67
2023/07/13 06:38:15;;;;;;;0.10;0.10;;;18.80;99.90;;;;;;5005903;28;20386;-67
2023/07/13 06:40:41;;;;;;;2.30;0.52;;;18.80;99.90;;;;;;5006325;28;20050;-67
2023/07/13 06:43:07;;;;;;;0.00;0.00;;;19.00;99.90;;;;;;5004596;28;20038;-67
2023/07/13 06:45:47;;;;;;;1.00;0.20;;;19.20;99.90;;;;;;5005426;28;20046;-67
2023/07/13 06:48:13;;;;;;;1.27;0.10;;;19.30;99.90;;;;;;5000481;28;20044;-67
2023/07/13 06:50:39;;;;;;;0.17;0.17;;;19.50;99.90;;;;;;5001493;28;20045;-68
2023/07/13 06:53:05;;;;;;;0.03;0.03;;;19.60;99.90;;;;;;5005699;28;20042;-67
2023/07/13 06:55:30;;;;;;;0.80;0.47;;;19.60;99.90;;;;;;5003882;28;20060;-67
2023/07/13 06:57:57;;;;;;;0.10;0.00;;;19.60;99.90;;;;;;4999336;28;20065;-67
2023/07/13 07:00:23;;;;;;;0.13;0.13;;;19.60;99.90;;;;;;5000164;28;20045;-67
2023/07/13 07:02:49;;;;;;;0.25;0.10;;;19.60;99.90;;;;;;5005627;28;20747;-66
2023/07/13 07:05:15;;;;;;;0.25;0.10;;;19.60;99.90;;;;;;5006432;28;20044;-67
2023/07/13 07:07:41;;;;;;;2.50;0.10;;;19.60;99.90;;;;;;5005814;28;20475;-66
2023/07/13 07:10:07;;;;;;;0.10;0.03;;;19.60;99.90;;;;;;4999150;28;20042;-66
2023/07/13 07:12:33;;;;;;;0.25;0.10;;;19.60;99.90;;;;;;5002080;28;20037;-66
2023/07/13 07:14:59;;;;;;;0.10;0.10;;;19.70;99.90;;;;;;5005302;28;20077;-67
2023/07/13 07:17:25;;;;;;;0.00;0.00;;;19.70;99.90;;;;;;5003927;28;20465;-66
2023/07/13 07:19:53;;;;;;;0.10;0.10;;;19.70;99.90;;;;;;5006687;28;20034;-67
2023/07/13 07:22:20;;;;;;;0.03;0.00;;;19.70;99.90;;;;;;5009476;28;20038;-67
2023/07/13 07:24:46;;;;;;;0.10;0.00;;;19.80;99.90;;;;;;5006331;28;20069;-67
2023/07/13 07:27:12;;;;;;;0.80;0.30;;;19.80;99.90;;;;;;5002368;28;20100;-67
2023/07/13 07:29:37;;;;;;;0.55;0.10;;;19.80;99.90;;;;;;5009714;28;20044;-66
2023/07/13 07:32:04;;;;;;;0.10;0.05;;;19.70;99.90;;;;;;5009687;28;20045;-67
2023/07/13 07:34:30;;;;;;;0.00;0.00;;;19.70;99.90;;;;;;5007358;28;20053;-67
2023/07/13 07:37:00;;;;;;;0.00;0.00;;;19.70;99.90;;;;;;5004624;28;20097;-67
2023/07/13 07:39:26;;;;;;;0.50;0.10;;;19.70;99.90;;;;;;5008061;28;20030;-67
2023/07/13 07:41:52;;;;;;;0.10;0.10;;;19.70;99.90;;;;;;5009551;28;20388;-67
2023/07/13 07:44:18;;;;;;;1.25;0.10;;;19.60;99.90;;;;;;5006253;28;20034;-67
2023/07/13 07:46:44;;;;;;;0.17;0.10;;;19.60;99.90;;;;;;5007772;28;20030;-67
2023/07/13 07:49:10;;;;;;;0.10;0.00;;;19.50;99.90;;;;;;5007492;28;20124;-67
2023/07/13 07:51:36;;;;;;;0.40;0.17;;;19.50;99.90;;;;;;5009140;28;20042;-67
2023/07/13 07:54:04;;;;;;;0.30;0.20;;;19.50;99.90;;;;;;5006812;28;20501;-67
2023/07/13 07:56:29;;;;;;;0.38;0.17;;;19.60;99.90;;;;;;5006810;28;20050;-67
2023/07/13 07:58:55;;;;;;;4.05;0.47;;;19.60;99.90;;;;;;4989387;28;20119;-67
2023/07/13 08:01:21;;;;;;;0.15;0.00;;;19.70;99.90;;;;;;5005360;28;20093;-68
2023/07/13 08:03:47;;;;;;;0.43;0.15;;;19.80;99.90;;;;;;5005581;28;20061;-67
2023/07/13 08:06:13;;;;;;;2.75;0.20;;;19.90;99.90;;;;;;4996998;28;20058;-67
2023/07/13 08:08:39;;;;;;;0.00;0.00;;;20.00;99.90;;;;;;4999857;28;20121;-68
2023/07/13 08:11:07;;;;;;;0.00;0.00;;;20.00;99.90;;;;;;5005327;28;20177;-68
2023/07/13 08:13:33;;;;;;;0.08;0.00;;;20.10;99.90;;;;;;5009308;28;20054;-68
2023/07/13 08:15:59;;;;;;;0.68;0.10;;;20.20;99.90;;;;;;5002948;28;20371;-68
2023/07/13 08:18:25;;;;;;;0.60;0.20;;;20.20;99.90;;;;;;5003249;28;20046;-67
2023/07/13 08:20:51;;;;;;;2.63;0.20;;;20.10;99.90;;;;;;5010331;28;20030;-66
2023/07/13 08:23:18;;;;;;;0.20;0.20;;;19.90;99.90;;;;;;5024631;28;20046;-65
2023/07/13 08:25:51;;;;;;;0.52;0.13;;;19.70;99.90;;;;;;5000413;28;20113;-66
2023/07/13 08:28:17;;;;;;;0.60;0.20;;;19.40;99.90;;;;;;5007070;28;20041;-67
2023/07/13 08:30:42;;;;;;;0.88;0.20;;;19.30;99.90;;;;;;5008798;28;20496;-67
2023/07/13 08:33:08;;;;;;;0.25;0.10;;;19.00;99.90;;;;;;4999666;28;20112;-67
2023/07/13 08:35:34;;;;;;;0.20;0.20;;;18.60;99.90;;;;;;5001902;28;20048;-67
2023/07/13 08:38:00;;;;;;;0.00;0.00;;;18.30;99.90;;;;;;5004404;28;20042;-67
2023/07/13 08:40:27;;;;;;;0.10;0.00;;;18.00;99.90;;;;;;5003291;28;20466;-67
2023/07/13 08:42:59;;;;;;;0.03;0.00;;;17.70;99.90;;;;;;4997285;28;20050;-67
2023/07/13 08:45:44;;;;;;;0.30;0.10;;;17.40;99.90;;;;;;5003746;28;20038;-67
2023/07/13 08:48:25;;;;;;;0.10;0.00;;;17.20;99.90;;;;;;5006794;28;20138;-67
2023/07/13 08:51:21;;;;;;;0.30;0.20;;;17.10;99.90;;;;;;5003350;28;20074;-66
2023/07/13 08:53:51;;;;;;;0.20;0.10;;;17.00;99.90;;;;;;5001951;28;20050;-67
2023/07/13 08:56:25;;;;;;;0.30;0.05;;;17.00;99.90;;;;;;5006712;28;20037;-67
2023/07/13 08:59:10;;;;;;;0.22;0.00;;;17.00;99.90;;;;;;5003194;28;20108;-67
2023/07/13 09:01:39;;;;;;;0.00;0.00;;;17.00;99.90;;;;;;4998153;28;20125;-67
2023/07/13 09:04:15;;;;;;;0.03;0.03;;;16.90;99.90;;;;;;5001788;28;20210;-67
2023/07/13 09:07:19;;;;;;;0.93;0.45;;;16.90;99.90;;;;;;5007732;28;20406;-68
2023/07/13 09:09:45;;;;;;;1.40;0.88;;;16.80;99.90;;;;;;5007055;28;20547;-68
2023/07/13 09:12:31;;;;;;;0.30;0.10;;;16.80;99.90;;;;;;4998109;28;20490;-67
2023/07/13 09:14:59;;;;;;;0.08;0.08;;;16.80;99.90;;;;;;5003153;28;20117;-68
2023/07/13 09:17:39;;;;;;;0.00;0.00;;;16.80;99.90;;;;;;5000489;28;20046;-68
2023/07/13 09:20:25;;;;;;;0.05;0.00;;;16.70;99.90;;;;;;5008524;28;20069;-68
2023/07/13 09:22:52;;;;;;;0.30;0.20;;;16.50;99.90;;;;;;5004777;28;20563;-68
2023/07/13 09:25:35;;;;;;;0.13;0.00;;;16.40;99.90;;;;;;5005625;28;20506;-68
2023/07/13 09:28:23;;;;;;;0.00;0.00;;;16.10;99.90;;;;;;5003889;28;20026;-69
2023/07/13 09:31:12;;;;;;;0.00;0.00;;;15.80;99.90;;;;;;5004326;28;20056;-68
2023/07/13 09:33:38;;;;;;;0.05;0.00;;;15.70;99.90;;;;;;5006615;28;20038;-68
2023/07/13 09:36:31;;;;;;;0.00;0.00;;;15.50;99.90;;;;;;5016991;28;20069;-68
2023/07/13 09:39:33;;;;;;;0.25;0.13;;;15.40;99.90;;;;;;5001038;28;20098;-69
2023/07/13 09:42:07;;;;;;;3.08;0.10;;;15.50;99.90;;;;;;5005057;28;20504;-69
2023/07/13 09:44:38;;;;;;;0.10;0.00;;;15.70;99.90;;;;;;5003059;28;20088;-69
2023/07/13 09:47:19;;;;;;;0.00;0.00;;;15.90;99.90;;;;;;5004549;28;20041;-69
2023/07/13 09:49:45;;;;;;;0.15;0.08;;;16.30;99.90;;;;;;5002248;28;20052;-68
2023/07/13 09:52:15;;;;;;;0.20;0.20;;;16.70;99.90;;;;;;5002257;28;20076;-68
2023/07/13 09:54:48;;;;;;;0.00;0.00;;;17.00;99.90;;;;;;5006454;28;20100;-68
2023/07/13 09:57:23;;;;;;;0.00;0.00;;;17.20;99.90;;;;;;5005790;28;20128;-69
2023/07/13 09:59:51;;;;;;;0.10;0.08;;;17.70;99.90;;;;;;5003927;28;20038;-68
2023/07/13 10:02:26;;;;;;;0.10;0.10;;;18.10;99.90;;;;;;5003782;28;20379;-68
2023/07/13 10:05:03;;;;;;;0.00;0.00;;;18.60;99.90;;;;;;5004552;28;20057;-68
2023/07/13 10:07:30;;;;;;;0.43;0.30;;;19.00;99.90;;;;;;4995366;28;20053;-68
2023/07/13 10:10:01;;;;;;;0.15;0.10;;;19.30;99.90;;;;;;5004642;28;20042;-68
2023/07/13 10:12:28;;;;;;;0.30;0.10;;;19.50;99.90;;;;;;5000813;28;20144;-69
2023/07/13 10:15:00;;;;;;;0.25;0.10;;;19.80;99.90;;;;;;5009444;28;20042;-68
2023/07/13 10:17:32;;;;;;;0.50;0.20;;;20.10;99.90;;;;;;5010881;28;20046;-69
2023/07/13 10:20:04;;;;;;;0.75;0.32;;;20.40;99.90;;;;;;5004719;28;20485;-68
2023/07/13 10:22:39;;;;;;;0.00;0.00;;;20.70;99.90;;;;;;5003530;28;20038;-68
2023/07/13 10:25:18;;;;;;;0.20;0.20;;;20.90;99.90;;;;;;5006882;28;20092;-68
2023/07/13 10:27:45;;;;;;;0.32;0.20;;;21.20;99.90;;;;;;5010912;28;20049;-68
2023/07/13 10:30:13;;;;;;;0.30;0.10;;;21.40;99.90;;;;;;5006630;28;20042;-68
2023/07/13 10:32:39;;;;;;;0.35;0.25;;;21.50;99.90;;;;;;5003777;28;20045;-68
2023/07/13 10:35:09;;;;;;;0.20;0.10;;;21.70;99.90;;;;;;5003077;28;20038;-68
2023/07/13 10:37:55;;;;;;;0.20;0.20;;;21.80;99.90;;;;;;5006808;28;20117;-68
2023/07/13 10:40:30;;;;;;;0.22;0.10;;;21.90;99.90;;;;;;5003837;28;20735;-68
2023/07/13 10:42:58;;;;;;;0.10;0.10;;;22.10;99.90;;;;;;5000203;28;20046;-68
2023/07/13 10:45:25;;;;;;;0.10;0.10;;;22.30;99.90;;;;;;5002400;28;20391;-68
2023/07/13 10:47:55;;;;;;;0.17;0.13;;;22.50;99.90;;;;;;4995874;28;20046;-68
2023/07/13 10:50:27;;;;;;;0.43;0.17;;;22.60;99.90;;;;;;5005076;28;20458;-68
2023/07/13 10:52:56;;;;;;;0.00;0.00;;;22.70;99.90;;;;;;5008040;28;20050;-68
2023/07/13 10:55:42;;;;;;;0.60;0.30;;;22.60;99.90;;;;;;5000780;28;20038;-67
2023/07/13 10:58:22;;;;;;;0.20;0.10;;;22.40;99.90;;;;;;5000722;28;20049;-67
2023/07/13 11:01:11;;;;;;;0.08;0.08;;;22.20;99.90;;;;;;5004552;28;20137;-67
2023/07/13 11:03:50;;;;;;;0.22;0.10;;;22.00;99.90;;;;;;5005942;28;20049;-68
2023/07/13 11:06:29;;;;;;;0.20;0.10;;;21.80;99.90;;;;;;5000585;28;20177;-69
2023/07/13 11:08:58;;;;;;;0.10;0.10;;;21.50;99.90;;;;;;5002231;28;20050;-68
2023/07/13 11:11:24;;;;;;;0.32;0.10;;;21.00;99.90;;;;;;5006695;28;20053;-68
2023/07/13 11:13:49;;;;;;;0.10;0.00;;;20.70;99.90;;;;;;4999508;28;20054;-68
2023/07/13 11:16:18;;;;;;;0.22;0.00;;;20.40;99.90;;;;;;4999989;28;20053;-68
2023/07/13 11:18:52;;;;;;;0.65;0.05;;;20.10;99.90;;;;;;5001679;28;20034;-67
2023/07/13 11:21:26;;;;;;;1.70;0.10;;;19.90;99.90;;;;;;5000895;28;20046;-67
2023/07/13 11:23:54;;;;;;;0.10;0.10;;;19.60;99.90;;;;;;4997694;28;20493;-68
2023/07/13 11:26:49;;;;;;;0.00;0.00;;;19.40;99.90;;;;;;5000226;28;20097;-67
2023/07/13 11:29:31;;;;;;;0.08;0.00;;;19.30;99.90;;;;;;5003024;28;20050;-67
2023/07/13 11:32:01;;;;;;;0.00;0.00;;;19.40;99.90;;;;;;4995324;28;20050;-68
2023/07/13 11:34:26;;;;;;;0.10;0.00;;;19.70;99.90;;;;;;4998989;28;20108;-68
2023/07/13 11:36:52;;;;;;;0.20;0.10;;;20.10;99.90;;;;;;5004506;28;20081;-68
2023/07/13 11:39:21;;;;;;;0.35;0.25;;;20.40;99.90;;;;;;5001005;28;20038;-68
2023/07/13 11:42:00;;;;;;;0.88;0.30;;;20.90;99.90;;;;;;5001511;28;20034;-68
2023/07/13 11:44:29;;;;;;;0.22;0.05;;;21.50;99.90;;;;;;4995543;28;20053;-67
2023/07/13 11:46:57;;;;;;;0.15;0.10;;;22.00;99.90;;;;;;5007849;28;20042;-68
2023/07/13 11:49:32;;;;;;;0.08;0.00;;;22.10;99.90;;;;;;5006282;28;21337;-68
2023/07/13 11:51:59;;;;;;;0.10;0.10;;;21.90;99.90;;;;;;5002803;28;20046;-68
2023/07/13 11:54:30;;;;;;;0.47;0.10;;;21.70;99.90;;;;;;5003258;28;20042;-68
2023/07/13 11:57:06;;;;;;;0.00;0.00;;;21.50;99.90;;;;;;5004490;28;20049;-68
2023/07/13 11:59:33;;;;;;;0.00;0.00;;;21.70;99.90;;;;;;5008210;28;20076;-68
2023/07/13 12:01:59;;;;;;;0.32;0.10;;;22.00;99.90;;;;;;4996576;28;20043;-68
2023/07/13 12:04:31;;;;;;;0.20;0.10;;;22.30;99.90;;;;;;5000495;28;20426;-68
2023/07/13 12:07:14;;;;;;;0.10;0.00;;;22.60;99.90;;;;;;5005526;28;20244;-68
2023/07/13 12:09:39;;;;;;;0.20;0.10;;;22.70;99.90;;;;;;5007072;28;20049;-68
2023/07/13 12:12:14;;;;;;;0.30;0.10;;;22.70;99.90;;;;;;4999407;28;20162;-68
2023/07/13 12:14:40;;;;;;;0.30;0.10;;;22.80;99.90;;;;;;5005932;28;20057;-68
2023/07/13 12:17:18;;;;;;;0.20;0.10;;;23.00;99.90;;;;;;5004981;28;20383;-68
2023/07/13 12:19:44;;;;;;;0.10;0.00;;;23.20;99.90;;;;;;5003730;28;20049;-68
2023/07/13 12:22:13;;;;;;;0.00;0.00;;;23.50;99.90;;;;;;5006040;28;20109;-68
2023/07/13 12:24:41;;;;;;;0.28;0.20;;;24.00;99.90;;;;;;5011876;28;20042;-68
2023/07/13 12:27:17;;;;;;;0.00;0.00;;;24.30;99.90;;;;;;5002126;28;20514;-68
2023/07/13 12:29:55;;;;;;;0.20;0.10;;;24.50;99.90;;;;;;5009771;28;20037;-68
2023/07/13 12:32:21;;;;;;;0.30;0.05;;;24.50;99.90;;;;;;5000508;28;20038;-68
2023/07/13 12:34:56;;;;;;;0.10;0.00;;;24.40;99.90;;;;;;5009449;28;20050;-68
2023/07/13 12:37:23;;;;;;;0.03;0.00;;;24.30;99.90;;;;;;5002006;28;20042;-67
2023/07/13 12:39:50;;;;;;;0.00;0.00;;;24.30;99.90;;;;;;5005585;28;20042;-68
2023/07/13 12:42:29;;;;;;;0.10;0.00;;;24.40;99.90;;;;;;5002207;28;20558;-68
2023/07/13 12:44:59;;;;;;;0.00;0.00;;;24.40;99.90;;;;;;5008242;28;20037;-68
2023/07/13 12:47:25;;;;;;;2.38;0.10;;;24.30;98.60;;;;;;4999613;28;20541;-68
2023/07/13 12:49:55;;;;;;;0.43;0.00;;;24.40;99.90;;;;;;5007465;28;20474;-69
2023/07/13 12:52:30;;;;;;;0.00;0.00;;;24.40;98.40;;;;;;5009318;28;20042;-69
2023/07/13 12:55:14;;;;;;;0.20;0.08;;;24.40;94.70;;;;;;5009784;28;20081;-69
2023/07/13 12:58:03;;;;;;;0.00;0.00;;;24.60;96.00;;;;;;4997073;28;20046;-70